createdAt,value
2019-02-27T00:00:22.884Z,96531.45
2019-02-27T00:05:19.902Z,96524.52
2019-02-27T00:10:17.072Z,96526.43
2019-02-27T00:15:14.292Z,96527.60
2019-02-27T00:20:11.350Z,96535.42
2019-02-27T00:25:08.355Z,96529.69
2019-02-27T00:30:10.801Z,96534.70
2019-02-27T00:35:07.774Z,96533.81
2019-02-27T00:40:07.199Z,96546.05
2019-02-27T00:45:08.116Z,96556.42
2019-02-27T00:50:07.692Z,96543.61
2019-02-27T00:55:06.463Z,96547.36
2019-02-27T01:00:16.529Z,96554.59
2019-02-27T01:05:13.904Z,96554.24
2019-02-27T01:10:12.365Z,96546.09
2019-02-27T01:15:13.748Z,96544.28
2019-02-27T01:20:14.201Z,96538.98
2019-02-27T01:25:11.959Z,96538.16
2019-02-27T01:30:15.004Z,96532.80
2019-02-27T01:35:17.502Z,96532.64
2019-02-27T01:40:17.887Z,96526.17
2019-02-27T01:45:20.570Z,96531.69
2019-02-27T01:50:31.841Z,96537.59
2019-02-27T01:55:28.900Z,96530.17
2019-02-27T02:00:26.187Z,96530.02
2019-02-27T02:05:27.146Z,96534.58
2019-02-27T02:10:28.038Z,96532.48
2019-02-27T02:15:44.812Z,96530.42
2019-02-27T02:20:53.344Z,96526.80
2019-02-27T02:26:26.589Z,96530.45
2019-02-27T02:31:41.216Z,96528.75
2019-02-27T02:37:14.238Z,96534.55
2019-02-27T02:42:24.586Z,96531.75
2019-02-27T02:48:06.369Z,96533.91
2019-02-27T02:53:31.755Z,96529.53
2019-02-27T02:59:24.309Z,96533.09
2019-02-27T03:05:09.660Z,96532.48
2019-02-27T03:10:26.592Z,96531.84
2019-02-27T03:15:47.205Z,96531.72
2019-02-27T03:20:55.488Z,96533.45
2019-02-27T03:26:25.811Z,96528.53
2019-02-27T03:31:40.289Z,96512.55
2019-02-27T03:37:00.336Z,96508.80
2019-02-27T03:42:30.864Z,96520.11
2019-02-27T03:47:37.383Z,96512.34
2019-02-27T03:52:58.218Z,96507.62
2019-02-27T03:58:22.224Z,96517.08
2019-02-27T04:03:57.970Z,96525.62
2019-02-27T04:08:56.452Z,96520.67
2019-02-27T04:13:53.565Z,96536.00
2019-02-27T04:18:53.066Z,96524.39
2019-02-27T04:23:50.093Z,96535.83
2019-02-27T04:28:47.223Z,96536.66
2019-02-27T04:33:44.477Z,96533.55
2019-02-27T04:38:41.562Z,96531.09
2019-02-27T04:43:38.597Z,96533.75
2019-02-27T04:48:35.649Z,96540.64
2019-02-27T04:53:32.640Z,96550.42
2019-02-27T04:58:31.383Z,96538.59
2019-02-27T05:03:31.220Z,96544.63
2019-02-27T05:08:28.226Z,96547.70
2019-02-27T05:13:25.177Z,96548.07
2019-02-27T05:18:22.352Z,96548.63
2019-02-27T05:23:22.335Z,96545.14
2019-02-27T05:28:19.527Z,96547.14
2019-02-27T05:33:18.008Z,96551.59
2019-02-27T05:38:16.252Z,96545.72
2019-02-27T05:43:15.255Z,96544.38
2019-02-27T05:48:12.204Z,96553.98
2019-02-27T05:53:11.409Z,96554.81
2019-02-27T05:58:08.456Z,96545.51
2019-02-27T06:03:05.391Z,96555.65
2019-02-27T06:08:02.871Z,96561.63
2019-02-27T06:13:01.813Z,96565.89
2019-02-27T06:17:58.891Z,96563.48
2019-02-27T06:22:55.849Z,96580.71
2019-02-27T06:27:52.862Z,96570.02
2019-02-27T06:32:49.899Z,96575.65
2019-02-27T06:37:50.425Z,96564.76
2019-02-27T06:42:47.100Z,96576.84
2019-02-27T06:47:44.178Z,96577.95
2019-02-27T06:52:42.462Z,96581.88
2019-02-27T06:57:41.858Z,96579.29
2019-02-27T07:02:40.800Z,96585.95
2019-02-27T07:07:39.824Z,96593.94
2019-02-27T07:12:37.072Z,96587.45
2019-02-27T07:17:37.239Z,96579.69
2019-02-27T07:23:22.949Z,96590.22
2019-02-27T07:28:15.533Z,96584.98
2019-02-27T07:33:14.498Z,96584.08
2019-02-27T07:38:12.501Z,96584.93
2019-02-27T07:43:09.551Z,96598.69
2019-02-27T07:48:08.824Z,96601.17
2019-02-27T07:53:06.186Z,96609.84
2019-02-27T07:58:03.275Z,96600.83
2019-02-27T08:03:02.228Z,96609.30
2019-02-27T08:08:00.407Z,96607.91
2019-02-27T08:13:00.330Z,96597.03
2019-02-27T08:17:58.630Z,96598.30
2019-02-27T08:22:55.861Z,96598.63
2019-02-27T08:27:54.336Z,96595.05
2019-02-27T08:32:57.418Z,96593.42
2019-02-27T08:38:02.073Z,96608.70
2019-02-27T08:42:54.192Z,96584.30
2019-02-27T08:47:51.278Z,96577.88
2019-02-27T08:52:51.439Z,96567.94
2019-02-27T08:57:49.632Z,96571.37
2019-02-27T09:02:46.209Z,96571.50
2019-02-27T09:07:43.241Z,96560.65
2019-02-27T09:12:40.441Z,96565.16
2019-02-27T09:17:37.387Z,96562.28
2019-02-27T09:22:36.789Z,96557.77
2019-02-27T09:27:35.335Z,96561.11
2019-02-27T09:32:32.217Z,96554.76
2019-02-27T09:37:29.394Z,96561.36
2019-02-27T09:42:26.563Z,96570.46
2019-02-27T09:47:25.752Z,96568.12
2019-02-27T09:52:27.841Z,96570.15
2019-02-27T09:57:27.106Z,96569.13
2019-02-27T10:02:27.411Z,96562.92
2019-02-27T10:07:24.488Z,96566.74
2019-02-27T10:12:21.629Z,96559.34
2019-02-27T10:17:20.429Z,96565.19
2019-02-27T10:22:21.142Z,96564.23
2019-02-27T10:27:18.358Z,96559.73
2019-02-27T10:32:17.656Z,96539.52
2019-02-27T10:37:18.224Z,96536.59
2019-02-27T10:42:13.780Z,96542.77
2019-02-27T10:47:12.792Z,96544.61
2019-02-27T10:52:13.113Z,96553.09
2019-02-27T10:57:13.223Z,96556.32
2019-02-27T11:02:12.384Z,96557.95
2019-02-27T11:07:09.132Z,96558.47
2019-02-27T11:12:08.075Z,96540.30
2019-02-27T11:17:05.193Z,96547.63
2019-02-27T11:22:02.255Z,96537.23
2019-02-27T11:27:03.489Z,96543.14
2019-02-27T11:32:00.268Z,96526.55
2019-02-27T11:36:57.328Z,96530.41
2019-02-27T11:41:54.350Z,96522.48
2019-02-27T11:46:58.780Z,96523.70
2019-02-27T11:51:50.619Z,96515.94
2019-02-27T11:56:51.119Z,96511.38
2019-02-27T12:01:55.368Z,96517.06
2019-02-27T12:06:50.055Z,96518.17
2019-02-27T12:11:48.740Z,96514.88
2019-02-27T12:16:48.578Z,96508.09
2019-02-27T12:21:44.922Z,96512.27
2019-02-27T12:26:43.352Z,96505.45
2019-02-27T12:31:40.442Z,96510.83
2019-02-27T12:36:38.059Z,96499.11
2019-02-27T12:41:35.091Z,96499.42
2019-02-27T12:46:36.933Z,96500.33
2019-02-27T12:51:35.261Z,96486.95
2019-02-27T12:56:32.000Z,96480.09
2019-02-27T13:01:29.918Z,96474.72
2019-02-27T13:06:26.988Z,96469.47
2019-02-27T13:11:24.120Z,96460.09
2019-02-27T13:16:25.859Z,96458.98
2019-02-27T13:21:22.921Z,96449.23
2019-02-27T13:26:19.868Z,96444.55
2019-02-27T13:31:18.768Z,96435.55
2019-02-27T13:36:15.773Z,96432.47
2019-02-27T13:41:14.116Z,96430.93
2019-02-27T13:46:13.061Z,96420.09
2019-02-27T13:51:10.189Z,96430.38
2019-02-27T13:56:08.598Z,96417.61
2019-02-27T14:01:07.579Z,96408.28
2019-02-27T14:06:09.279Z,96409.97
2019-02-27T14:11:04.523Z,96396.86
2019-02-27T14:16:01.698Z,96395.58
2019-02-27T14:21:02.388Z,96381.50
2019-02-27T14:26:05.564Z,96389.27
2019-02-27T14:31:02.032Z,96382.47
2019-02-27T14:35:58.971Z,96385.05
2019-02-27T14:40:57.011Z,96367.53
2019-02-27T14:45:53.992Z,96364.23
2019-02-27T14:50:55.932Z,96358.28
2019-02-27T14:55:54.979Z,96348.16
2019-02-27T15:00:52.024Z,96361.52
2019-02-27T15:05:49.034Z,96340.50
2019-02-27T15:10:48.041Z,96327.19
2019-02-27T15:15:45.321Z,96325.55
2019-02-27T15:20:42.291Z,96323.65
2019-02-27T15:25:43.183Z,96327.25
2019-02-27T15:30:38.186Z,96322.96
2019-02-27T15:35:35.160Z,96319.00
2019-02-27T15:40:33.779Z,96320.55
2019-02-27T15:45:30.799Z,96318.42
2019-02-27T15:50:35.133Z,96310.70
2019-02-27T15:55:34.341Z,96306.72
2019-02-27T16:00:31.058Z,96300.12
2019-02-27T16:05:31.445Z,96293.45
2019-02-27T16:10:27.729Z,96289.52
2019-02-27T16:15:25.580Z,96287.56
2019-02-27T16:20:23.970Z,96282.93
2019-02-27T16:25:25.116Z,96276.14
2019-02-27T16:30:31.117Z,96271.31
2019-02-27T16:35:25.556Z,96270.68
2019-02-27T16:40:24.766Z,96265.68
2019-02-27T16:45:33.910Z,96261.36
2019-02-27T16:50:34.479Z,96267.70
2019-02-27T16:55:36.051Z,96274.53
2019-02-27T17:00:34.881Z,96262.02
2019-02-27T17:05:32.021Z,96263.17
2019-02-27T17:10:33.526Z,96247.17
2019-02-27T17:15:34.776Z,96251.17
2019-02-27T17:20:29.916Z,96244.84
2019-02-27T17:25:29.904Z,96230.47
2019-02-27T17:30:36.598Z,96227.95
2019-02-27T17:35:30.186Z,96221.09
2019-02-27T17:40:29.032Z,96214.23
2019-02-27T17:45:26.804Z,96205.34
2019-02-27T17:50:24.074Z,96207.78
2019-02-27T17:55:21.205Z,96204.13
2019-02-27T18:00:43.825Z,96196.45
2019-02-27T18:05:40.898Z,96188.72
2019-02-27T18:10:38.356Z,96191.14
2019-02-27T18:15:35.547Z,96176.23
2019-02-27T18:20:35.610Z,96170.52
2019-02-27T18:25:32.639Z,96167.68
2019-02-27T18:30:29.609Z,96167.78
2019-02-27T18:35:29.778Z,96160.28
2019-02-27T18:40:27.121Z,96159.41
2019-02-27T18:45:26.800Z,96149.70
2019-02-27T18:50:24.803Z,96151.27
2019-02-27T18:55:22.706Z,96139.91
2019-02-27T19:00:29.475Z,96136.19
2019-02-27T19:05:26.578Z,96128.72
2019-02-27T19:10:23.976Z,96122.23
2019-02-27T19:15:23.618Z,96123.41
2019-02-27T19:20:26.163Z,96120.52
2019-02-27T19:25:23.103Z,96104.06
2019-02-27T19:30:20.401Z,96101.67
2019-02-27T19:35:21.130Z,96093.64
2019-02-27T19:40:19.149Z,96098.64
2019-02-27T19:45:16.315Z,96085.22
2019-02-27T19:50:13.701Z,96075.75
2019-02-27T19:55:10.804Z,96069.86
2019-02-27T20:00:22.334Z,96066.22
2019-02-27T20:05:19.791Z,96045.16
2019-02-27T20:10:17.334Z,96044.02
2019-02-27T20:15:19.425Z,96045.52
2019-02-27T20:20:19.982Z,96036.73
2019-02-27T20:25:21.064Z,96021.78
2019-02-27T20:30:20.284Z,96028.14
2019-02-27T20:35:20.686Z,96021.80
2019-02-27T20:40:20.335Z,96017.31
2019-02-27T20:45:23.055Z,96010.66
2019-02-27T20:50:39.485Z,96007.48
2019-02-27T20:55:36.457Z,95996.19
2019-02-27T21:00:36.540Z,95969.39
2019-02-27T21:05:32.542Z,95959.73
2019-02-27T21:10:33.690Z,95942.93
2019-02-27T21:15:32.477Z,95934.61
2019-02-27T21:20:29.526Z,95925.29
2019-02-27T21:25:26.744Z,95914.80
2019-02-27T21:30:24.860Z,95909.45
2019-02-27T21:35:21.812Z,95908.27
2019-02-27T21:40:19.177Z,95893.13
2019-02-27T21:45:21.630Z,95887.97
2019-02-27T21:50:23.319Z,95886.00
2019-02-27T21:55:22.705Z,95874.31
2019-02-27T22:00:29.021Z,95863.00
2019-02-27T22:05:26.305Z,95861.16
2019-02-27T22:15:29.309Z,95850.85
2019-02-27T22:20:27.003Z,95848.73
2019-02-27T22:25:24.192Z,95845.41
2019-02-27T22:30:22.471Z,95845.77
2019-02-27T22:35:21.559Z,95837.12
2019-02-27T22:40:22.779Z,95832.13
2019-02-27T22:45:20.178Z,95824.31
2019-02-27T22:50:18.642Z,95821.48
2019-02-27T22:55:15.607Z,95816.34
2019-02-27T23:00:56.578Z,95808.52
2019-02-27T23:05:53.787Z,95812.72
2019-02-27T23:10:50.977Z,95808.90
2019-02-27T23:15:48.038Z,95809.08
2019-02-27T23:20:44.985Z,95816.89
2019-02-27T23:25:41.970Z,95795.61
2019-02-27T23:30:41.628Z,95784.27
2019-02-27T23:35:38.674Z,95786.77
2019-02-27T23:40:35.626Z,95787.92
2019-02-27T23:45:32.374Z,95790.07
2019-02-27T23:50:29.374Z,95790.75
2019-02-27T23:55:26.339Z,95781.28
